createdAt,value
2023-04-23T00:02:27.073Z,4.13
2023-04-23T00:04:57.999Z,3.92
2023-04-23T00:07:28.813Z,3.83
2023-04-23T00:09:59.359Z,4.13
2023-04-23T00:12:28.300Z,3.38
2023-04-23T00:14:57.328Z,3.60
2023-04-23T00:17:25.818Z,4.85
2023-04-23T00:19:54.054Z,3.83
2023-04-23T00:22:22.263Z,3.85
2023-04-23T00:24:55.269Z,3.53
2023-04-23T00:27:23.623Z,4.03
2023-04-23T00:29:51.723Z,3.45
2023-04-23T00:32:19.901Z,3.72
2023-04-23T00:34:49.385Z,3.65
2023-04-23T00:37:17.626Z,3.95
2023-04-23T00:39:45.853Z,3.75
2023-04-23T00:42:17.197Z,4.30
2023-04-23T00:44:45.737Z,4.10
2023-04-23T00:47:15.170Z,3.42
2023-04-23T00:49:44.481Z,3.17
2023-04-23T00:52:12.737Z,3.80
2023-04-23T00:54:41.110Z,3.33
2023-04-23T00:57:09.858Z,3.25
2023-04-23T00:59:39.619Z,4.25
2023-04-23T01:02:08.164Z,3.63
2023-04-23T01:04:38.925Z,4.57
2023-04-23T01:07:07.726Z,4.95
2023-04-23T01:09:36.089Z,4.45
2023-04-23T01:12:06.794Z,3.80
2023-04-23T01:14:35.642Z,3.92
2023-04-23T01:17:06.015Z,4.68
2023-04-23T01:19:34.365Z,4.05
2023-04-23T01:22:02.861Z,3.83
2023-04-23T01:24:33.264Z,4.57
2023-04-23T01:27:02.502Z,3.90
2023-04-23T01:29:31.185Z,3.42
2023-04-23T01:32:00.657Z,3.35
2023-04-23T01:34:28.771Z,3.67
2023-04-23T01:36:58.566Z,3.30
2023-04-23T01:39:26.932Z,3.42
2023-04-23T01:41:57.414Z,3.35
2023-04-23T01:44:25.836Z,3.53
2023-04-23T01:46:54.457Z,4.22
2023-04-23T01:49:22.781Z,3.75
2023-04-23T01:51:50.974Z,3.20
2023-04-23T01:54:19.654Z,3.65
2023-04-23T01:56:47.889Z,3.97
2023-04-23T01:59:17.700Z,4.47
2023-04-23T02:01:47.357Z,4.07
2023-04-23T02:04:17.335Z,3.47
2023-04-23T02:06:48.752Z,3.47
2023-04-23T02:09:16.990Z,4.03
2023-04-23T02:11:45.154Z,4.72
2023-04-23T02:14:13.367Z,4.15
2023-04-23T02:16:43.392Z,4.38
2023-04-23T02:19:14.036Z,4.10
2023-04-23T02:21:43.655Z,4.13
2023-04-23T02:24:11.918Z,4.55
2023-04-23T02:26:40.122Z,4.38
2023-04-23T02:29:08.400Z,4.80
2023-04-23T02:31:36.670Z,4.75
2023-04-23T02:34:06.469Z,3.70
2023-04-23T02:36:34.749Z,4.25
2023-04-23T02:39:02.897Z,4.30
2023-04-23T02:41:31.110Z,4.10
2023-04-23T02:43:59.800Z,3.65
2023-04-23T02:46:27.992Z,4.65
2023-04-23T02:48:56.230Z,4.57
2023-04-23T02:51:26.330Z,4.40
2023-04-23T02:53:54.605Z,5.22
2023-04-23T02:56:22.732Z,4.38
2023-04-23T02:58:51.049Z,4.47
2023-04-23T03:01:19.344Z,4.82
2023-04-23T03:03:47.676Z,4.28
2023-04-23T03:06:16.468Z,4.07
2023-04-23T03:08:46.283Z,4.20
2023-04-23T03:11:14.555Z,4.30
2023-04-23T03:13:42.818Z,4.10
2023-04-23T03:16:11.581Z,4.53
2023-04-23T03:18:40.082Z,4.03
2023-04-23T03:21:08.485Z,4.60
2023-04-23T03:23:37.181Z,3.80
2023-04-23T03:26:07.144Z,3.70
2023-04-23T03:28:35.454Z,4.60
2023-04-23T03:31:03.700Z,4.25
2023-04-23T03:33:32.100Z,4.25
2023-04-23T03:36:00.340Z,4.45
2023-04-23T03:38:28.654Z,5.70
2023-04-23T03:40:57.052Z,5.00
2023-04-23T03:43:26.991Z,5.05
2023-04-23T03:45:55.250Z,4.35
2023-04-23T03:48:23.428Z,4.28
2023-04-23T03:50:51.809Z,4.97
2023-04-23T03:53:20.047Z,4.40
2023-04-23T03:55:48.222Z,4.07
2023-04-23T03:58:17.171Z,4.43
2023-04-23T04:00:47.269Z,4.03
2023-04-23T04:03:15.602Z,4.38
2023-04-23T04:05:44.650Z,3.78
2023-04-23T04:08:12.935Z,3.78
2023-04-23T04:10:41.401Z,3.38
2023-04-23T04:13:09.647Z,3.97
2023-04-23T04:15:37.857Z,4.25
2023-04-23T04:18:07.677Z,4.15
2023-04-23T04:20:35.866Z,4.78
2023-04-23T04:23:04.069Z,3.95
2023-04-23T04:25:32.272Z,3.80
2023-04-23T04:28:00.544Z,4.45
2023-04-23T04:30:28.770Z,3.85
2023-04-23T04:32:56.999Z,5.18
2023-04-23T04:35:26.755Z,4.03
2023-04-23T04:37:55.068Z,4.32
2023-04-23T04:40:23.348Z,4.15
2023-04-23T04:42:51.573Z,4.05
2023-04-23T04:45:20.034Z,4.20
2023-04-23T04:47:48.338Z,3.88
2023-04-23T04:50:17.120Z,3.88
2023-04-23T04:52:46.709Z,4.78
2023-04-23T04:55:14.915Z,4.28
2023-04-23T04:57:43.405Z,4.97
2023-04-23T05:00:29.399Z,4.43
2023-04-23T05:02:59.034Z,4.22
2023-04-23T05:05:28.694Z,4.57
2023-04-23T05:08:02.159Z,4.22
2023-04-23T05:10:30.794Z,4.97
2023-04-23T05:12:59.414Z,4.35
2023-04-23T05:15:27.809Z,5.05
2023-04-23T05:17:56.339Z,4.70
2023-04-23T05:20:24.604Z,4.65
2023-04-23T05:22:52.792Z,4.90
2023-04-23T05:25:22.538Z,5.57
2023-04-23T05:27:50.689Z,4.38
2023-04-23T05:30:19.094Z,5.30
2023-04-23T05:32:47.463Z,4.10
2023-04-23T05:35:15.695Z,5.13
2023-04-23T05:37:44.133Z,5.03
2023-04-23T05:40:13.312Z,4.80
2023-04-23T05:42:43.085Z,5.38
2023-04-23T05:45:12.318Z,4.90
2023-04-23T05:47:40.647Z,4.25
2023-04-23T05:50:11.251Z,4.70
2023-04-23T05:52:39.622Z,5.45
2023-04-23T05:55:12.570Z,5.05
2023-04-23T05:57:43.218Z,5.15
2023-04-23T06:00:12.542Z,4.80
2023-04-23T06:02:41.353Z,5.65
2023-04-23T06:05:10.595Z,4.93
2023-04-23T06:07:39.055Z,5.75
2023-04-23T06:10:08.633Z,4.90
2023-04-23T06:12:39.432Z,5.60
2023-04-23T06:15:11.347Z,5.22
2023-04-23T06:17:39.601Z,4.97
2023-04-23T06:20:10.863Z,6.25
2023-04-23T06:22:39.304Z,5.32
2023-04-23T06:25:08.112Z,4.60
2023-04-23T06:27:36.331Z,5.57
2023-04-23T06:30:04.991Z,5.07
2023-04-23T06:32:34.668Z,5.57
2023-04-23T06:35:03.977Z,5.95
2023-04-23T06:37:32.857Z,5.15
2023-04-23T06:40:01.279Z,5.45
2023-04-23T06:42:29.609Z,5.70
2023-04-23T06:44:59.582Z,5.40
2023-04-23T06:47:27.889Z,5.68
2023-04-23T06:49:57.630Z,5.90
2023-04-23T06:52:26.020Z,5.05
2023-04-23T06:54:54.325Z,4.55
2023-04-23T06:57:23.257Z,5.05
2023-04-23T06:59:52.295Z,4.90
2023-04-23T07:02:20.688Z,4.28
2023-04-23T07:04:48.997Z,4.63
2023-04-23T07:07:18.818Z,4.57
2023-04-23T07:09:47.032Z,4.80
2023-04-23T07:12:15.247Z,4.25
2023-04-23T07:14:43.742Z,3.65
2023-04-23T07:17:12.173Z,4.78
2023-04-23T07:19:40.354Z,3.88
2023-04-23T07:22:08.531Z,4.10
2023-04-23T07:24:38.313Z,4.10
2023-04-23T07:27:08.469Z,3.88
2023-04-23T07:29:36.683Z,3.85
2023-04-23T07:32:05.018Z,4.20
2023-04-23T07:34:33.754Z,4.82
2023-04-23T07:37:03.281Z,4.28
2023-04-23T07:39:31.499Z,4.43
2023-04-23T07:42:02.007Z,4.45
2023-04-23T07:44:30.136Z,4.95
2023-04-23T07:46:58.326Z,4.13
2023-04-23T07:49:26.536Z,5.18
2023-04-23T07:51:54.760Z,5.00
2023-04-23T07:54:25.122Z,4.75
2023-04-23T07:56:54.420Z,3.92
2023-04-23T07:59:24.074Z,4.70
2023-04-23T08:01:52.791Z,4.75
2023-04-23T08:04:21.130Z,4.07
2023-04-23T08:06:49.465Z,4.40
2023-04-23T08:09:17.625Z,4.75
2023-04-23T08:11:45.889Z,4.40
2023-04-23T08:14:14.053Z,4.30
2023-04-23T08:16:44.916Z,4.03
2023-04-23T08:19:13.125Z,4.25
2023-04-23T08:21:41.582Z,4.20
2023-04-23T08:24:09.799Z,4.10
2023-04-23T08:26:37.975Z,3.67
2023-04-23T08:29:10.204Z,3.88
2023-04-23T08:31:39.734Z,4.18
2023-04-23T08:34:09.486Z,3.40
2023-04-23T08:36:37.968Z,3.88
2023-04-23T08:39:07.148Z,4.28
2023-04-23T08:41:40.187Z,3.83
2023-04-23T08:44:14.229Z,4.90
2023-04-23T08:46:45.266Z,3.78
2023-04-23T08:49:17.724Z,4.45
2023-04-23T08:51:50.657Z,4.35
2023-04-23T08:54:23.759Z,3.65
2023-04-23T08:56:53.188Z,4.05
2023-04-23T08:59:23.117Z,3.88
2023-04-23T09:01:51.282Z,3.88
2023-04-23T09:04:21.148Z,3.80
2023-04-23T09:06:49.356Z,3.40
2023-04-23T09:09:18.668Z,3.63
2023-04-23T09:11:46.946Z,3.45
2023-04-23T09:14:15.548Z,4.60
2023-04-23T09:16:44.466Z,3.90
2023-04-23T09:19:13.056Z,3.65
2023-04-23T09:21:43.665Z,3.63
2023-04-23T09:24:12.840Z,3.30
2023-04-23T09:26:46.882Z,4.03
2023-04-23T09:29:19.152Z,3.40
2023-04-23T09:31:49.473Z,3.55
2023-04-23T09:34:18.670Z,3.97
2023-04-23T09:36:50.710Z,4.22
2023-04-23T09:39:20.320Z,4.72
2023-04-23T09:41:48.533Z,3.83
2023-04-23T09:44:20.061Z,3.72
2023-04-23T09:46:48.311Z,3.45
2023-04-23T09:49:17.007Z,3.65
2023-04-23T09:51:48.481Z,4.00
2023-04-23T09:54:18.830Z,3.33
2023-04-23T09:56:54.267Z,3.33
2023-04-23T09:59:35.410Z,3.78
2023-04-23T10:02:09.721Z,3.45
2023-04-23T10:04:40.928Z,3.90
2023-04-23T10:07:19.919Z,3.75
2023-04-23T10:09:49.181Z,3.42
2023-04-23T10:14:53.891Z,3.75
2023-04-23T10:17:22.149Z,3.25
2023-04-23T10:19:52.643Z,3.05
2023-04-23T10:22:24.188Z,3.70
2023-04-23T10:24:57.188Z,3.53
2023-04-23T10:27:40.641Z,3.35
2023-04-23T10:30:17.603Z,3.70
2023-04-23T10:32:46.589Z,3.38
2023-04-23T10:35:14.799Z,3.38
2023-04-23T10:37:46.645Z,3.13
2023-04-23T10:40:17.641Z,2.88
2023-04-23T10:42:47.332Z,3.50
2023-04-23T10:45:23.495Z,2.85
2023-04-23T10:47:55.064Z,2.95
2023-04-23T10:50:24.898Z,3.60
2023-04-23T10:52:57.042Z,3.65
2023-04-23T10:55:28.556Z,2.97
2023-04-23T10:58:03.153Z,3.47
2023-04-23T11:00:45.552Z,2.65
2023-04-23T11:03:32.211Z,2.85
2023-04-23T11:06:03.386Z,2.80
2023-04-23T11:08:33.734Z,3.25
2023-04-23T11:11:03.398Z,3.28
2023-04-23T11:13:31.795Z,2.92
2023-04-23T11:16:19.644Z,2.85
2023-04-23T11:18:59.852Z,3.10
2023-04-23T11:22:02.909Z,3.20
2023-04-23T11:24:37.234Z,3.28
2023-04-23T11:27:08.045Z,3.28
2023-04-23T11:29:37.708Z,3.00
2023-04-23T11:32:10.573Z,3.05
2023-04-23T11:34:40.503Z,3.00
2023-04-23T11:37:12.209Z,3.58
2023-04-23T11:39:43.980Z,3.15
2023-04-23T11:42:13.326Z,2.45
2023-04-23T11:44:42.496Z,2.63
2023-04-23T11:47:12.564Z,3.30
2023-04-23T11:49:42.956Z,3.15
2023-04-23T11:52:12.062Z,3.05
2023-04-23T11:54:43.467Z,2.55
2023-04-23T11:57:12.037Z,3.65
2023-04-23T11:59:40.597Z,3.55
2023-04-23T12:02:09.024Z,3.13
2023-04-23T12:04:40.304Z,2.95
2023-04-23T12:07:19.603Z,2.95
2023-04-23T12:10:00.261Z,3.20
2023-04-23T12:12:34.689Z,2.97
2023-04-23T12:15:07.584Z,2.72
2023-04-23T12:17:36.313Z,4.05
2023-04-23T12:20:06.936Z,3.47
2023-04-23T12:22:35.167Z,2.90
2023-04-23T12:25:09.664Z,2.97
2023-04-23T12:27:41.163Z,2.92
2023-04-23T12:30:11.884Z,2.78
2023-04-23T12:32:40.565Z,3.38
2023-04-23T12:35:10.109Z,2.85
2023-04-23T12:37:38.862Z,3.10
2023-04-23T12:40:10.352Z,2.97
2023-04-23T12:42:38.572Z,2.72
2023-04-23T12:45:08.766Z,2.88
2023-04-23T12:47:37.000Z,2.70
2023-04-23T12:50:05.823Z,2.83
2023-04-23T12:52:34.009Z,2.60
2023-04-23T12:55:02.784Z,2.40
2023-04-23T12:57:32.507Z,2.40
2023-04-23T13:00:00.908Z,2.83
2023-04-23T13:02:29.133Z,2.63
2023-04-23T13:05:01.315Z,2.13
2023-04-23T13:07:29.704Z,2.58
2023-04-23T13:09:59.580Z,2.97
2023-04-23T13:12:27.899Z,2.30
2023-04-23T13:14:58.006Z,2.75
2023-04-23T13:17:26.778Z,2.97
2023-04-23T13:19:55.663Z,2.45
2023-04-23T13:22:28.486Z,2.40
2023-04-23T13:24:57.247Z,2.75
2023-04-23T13:27:26.103Z,3.05
2023-04-23T13:29:54.216Z,2.78
2023-04-23T13:32:27.207Z,3.00
2023-04-23T13:34:55.825Z,2.80
2023-04-23T13:37:24.682Z,2.90
2023-04-23T13:39:52.899Z,2.67
2023-04-23T13:42:21.131Z,2.65
2023-04-23T13:44:49.318Z,2.85
2023-04-23T13:47:17.561Z,3.28
2023-04-23T13:49:47.289Z,2.83
2023-04-23T13:52:15.366Z,2.28
2023-04-23T13:54:43.634Z,2.85
2023-04-23T13:57:11.825Z,3.20
2023-04-23T13:59:40.291Z,2.63
2023-04-23T14:02:08.715Z,2.80
2023-04-23T14:04:37.093Z,2.70
2023-04-23T14:07:07.075Z,2.72
2023-04-23T14:09:35.301Z,2.72
2023-04-23T14:12:03.885Z,3.03
2023-04-23T14:14:32.465Z,2.95
2023-04-23T14:17:01.128Z,2.97
2023-04-23T14:19:30.534Z,3.22
2023-04-23T14:21:59.017Z,3.05
2023-04-23T14:24:35.813Z,2.80
2023-04-23T14:27:05.703Z,3.30
2023-04-23T14:29:37.917Z,3.17
2023-04-23T14:32:06.327Z,2.92
2023-04-23T14:34:35.778Z,2.72
2023-04-23T14:37:04.340Z,2.40
2023-04-23T14:39:35.382Z,2.75
2023-04-23T14:42:03.697Z,3.22
2023-04-23T14:44:31.956Z,2.78
2023-04-23T14:47:00.659Z,2.80
2023-04-23T14:49:28.928Z,2.92
2023-04-23T14:51:58.337Z,2.80
2023-04-23T14:54:26.864Z,3.33
2023-04-23T14:56:56.658Z,2.80
2023-04-23T14:59:25.030Z,2.45
2023-04-23T15:01:53.462Z,2.67
2023-04-23T15:04:21.749Z,2.58
2023-04-23T15:06:49.972Z,3.00
2023-04-23T15:09:18.162Z,2.75
2023-04-23T15:11:46.576Z,2.60
2023-04-23T15:14:26.724Z,2.70
2023-04-23T15:16:55.259Z,2.58
2023-04-23T15:19:23.450Z,2.40
2023-04-23T15:21:51.793Z,2.47
2023-04-23T15:24:20.022Z,2.72
2023-04-23T15:26:48.730Z,2.88
2023-04-23T15:29:17.145Z,2.47
2023-04-23T15:31:46.866Z,2.10
2023-04-23T15:34:15.107Z,2.45
2023-04-23T15:36:43.350Z,2.72
2023-04-23T15:39:11.486Z,2.88
2023-04-23T15:41:41.514Z,2.47
2023-04-23T15:44:12.207Z,2.60
2023-04-23T15:46:41.151Z,2.40
2023-04-23T15:49:10.832Z,2.53
2023-04-23T15:51:39.234Z,2.35
2023-04-23T15:54:08.902Z,2.83
2023-04-23T15:56:37.586Z,3.05
2023-04-23T15:59:05.879Z,2.28
